sensor_id;sensor_type;location;lat;lon;timestamp;pressure;altitude;pressure_sealevel;temperature;humidity
10668;BME280;5382;42.136;24.796;2023-03-16T00:02:00;98813.03;;;10.77;100.00
10668;BME280;5382;42.136;24.796;2023-03-16T00:04:27;98816.09;;;10.82;100.00
10668;BME280;5382;42.136;24.796;2023-03-16T00:06:54;98817.88;;;10.81;100.00
10668;BME280;5382;42.136;24.796;2023-03-16T00:09:21;98808.69;;;10.76;100.00
10668;BME280;5382;42.136;24.796;2023-03-16T00:11:55;98816.63;;;10.76;100.00
10668;BME280;5382;42.136;24.796;2023-03-16T00:14:23;98810.63;;;10.74;100.00
10668;BME280;5382;42.136;24.796;2023-03-16T00:16:51;98813.44;;;10.72;100.00
10668;BME280;5382;42.136;24.796;2023-03-16T00:19:18;98826.38;;;10.75;100.00
10668;BME280;5382;42.136;24.796;2023-03-16T00:21:47;98817.19;;;10.69;100.00
10668;BME280;5382;42.136;24.796;2023-03-16T00:24:14;98819.44;;;10.74;100.00
10668;BME280;5382;42.136;24.796;2023-03-16T00:26:43;98808.69;;;10.76;100.00
10668;BME280;5382;42.136;24.796;2023-03-16T00:29:10;98818.31;;;10.77;100.00
10668;BME280;5382;42.136;24.796;2023-03-16T00:31:37;98812.34;;;10.75;100.00
10668;BME280;5382;42.136;24.796;2023-03-16T00:34:05;98811.63;;;10.73;100.00
10668;BME280;5382;42.136;24.796;2023-03-16T00:36:32;98814.28;;;10.73;100.00
10668;BME280;5382;42.136;24.796;2023-03-16T00:39:02;98825.25;;;10.68;100.00
10668;BME280;5382;42.136;24.796;2023-03-16T00:41:29;98819.00;;;10.59;100.00
10668;BME280;5382;42.136;24.796;2023-03-16T00:43:56;98824.72;;;10.64;100.00
10668;BME280;5382;42.136;24.796;2023-03-16T00:46:23;98833.19;;;10.68;100.00
10668;BME280;5382;42.136;24.796;2023-03-16T00:48:51;98830.00;;;10.64;100.00
10668;BME280;5382;42.136;24.796;2023-03-16T00:51:19;98828.06;;;10.66;100.00
10668;BME280;5382;42.136;24.796;2023-03-16T00:53:47;98831.81;;;10.64;100.00
10668;BME280;5382;42.136;24.796;2023-03-16T00:56:15;98843.94;;;10.66;100.00
10668;BME280;5382;42.136;24.796;2023-03-16T00:58:43;98838.75;;;10.55;100.00
10668;BME280;5382;42.136;24.796;2023-03-16T01:01:12;98840.16;;;10.59;100.00
10668;BME280;5382;42.136;24.796;2023-03-16T01:03:39;98833.59;;;10.63;100.00
10668;BME280;5382;42.136;24.796;2023-03-16T01:06:06;98850.84;;;10.58;100.00
10668;BME280;5382;42.136;24.796;2023-03-16T01:08:36;98840.88;;;10.61;100.00
10668;BME280;5382;42.136;24.796;2023-03-16T01:11:03;98830.94;;;10.44;100.00
10668;BME280;5382;42.136;24.796;2023-03-16T01:13:30;98841.09;;;10.58;100.00
10668;BME280;5382;42.136;24.796;2023-03-16T01:15:58;98838.91;;;10.54;100.00
10668;BME280;5382;42.136;24.796;2023-03-16T01:18:25;98843.31;;;10.53;100.00
10668;BME280;5382;42.136;24.796;2023-03-16T01:20:52;98852.78;;;10.56;100.00
10668;BME280;5382;42.136;24.796;2023-03-16T01:23:19;98859.50;;;10.60;100.00
10668;BME280;5382;42.136;24.796;2023-03-16T01:25:48;98853.91;;;10.53;100.00
10668;BME280;5382;42.136;24.796;2023-03-16T01:28:18;98855.59;;;10.54;100.00
10668;BME280;5382;42.136;24.796;2023-03-16T01:30:45;98845.28;;;10.51;100.00
10668;BME280;5382;42.136;24.796;2023-03-16T01:33:12;98852.91;;;10.44;100.00
10668;BME280;5382;42.136;24.796;2023-03-16T01:35:39;98856.13;;;10.38;100.00
10668;BME280;5382;42.136;24.796;2023-03-16T01:38:06;98859.19;;;10.43;100.00
10668;BME280;5382;42.136;24.796;2023-03-16T01:40:33;98862.78;;;10.33;100.00
10668;BME280;5382;42.136;24.796;2023-03-16T01:43:03;98872.97;;;10.16;100.00
10668;BME280;5382;42.136;24.796;2023-03-16T01:45:54;98852.88;;;10.04;100.00
10668;BME280;5382;42.136;24.796;2023-03-16T01:48:25;98891.41;;;9.97;100.00
10668;BME280;5382;42.136;24.796;2023-03-16T01:50:54;98866.19;;;9.93;100.00
10668;BME280;5382;42.136;24.796;2023-03-16T01:53:23;98900.34;;;9.85;100.00
10668;BME280;5382;42.136;24.796;2023-03-16T01:55:51;98884.81;;;9.70;100.00
10668;BME280;5382;42.136;24.796;2023-03-16T01:58:21;98897.41;;;9.57;100.00
10668;BME280;5382;42.136;24.796;2023-03-16T02:00:48;98882.19;;;9.49;100.00
10668;BME280;5382;42.136;24.796;2023-03-16T02:03:17;98894.44;;;9.50;100.00
10668;BME280;5382;42.136;24.796;2023-03-16T02:05:47;98881.44;;;9.37;100.00
10668;BME280;5382;42.136;24.796;2023-03-16T02:08:17;98915.56;;;9.29;100.00
10668;BME280;5382;42.136;24.796;2023-03-16T02:10:44;98907.84;;;9.26;100.00
10668;BME280;5382;42.136;24.796;2023-03-16T02:13:12;98913.28;;;9.25;100.00
10668;BME280;5382;42.136;24.796;2023-03-16T02:15:40;98915.47;;;9.20;100.00
10668;BME280;5382;42.136;24.796;2023-03-16T02:18:07;98929.38;;;9.22;100.00
10668;BME280;5382;42.136;24.796;2023-03-16T02:20:39;98932.38;;;9.17;100.00
10668;BME280;5382;42.136;24.796;2023-03-16T02:23:10;98917.63;;;9.14;100.00
10668;BME280;5382;42.136;24.796;2023-03-16T02:25:47;98923.75;;;9.15;100.00
10668;BME280;5382;42.136;24.796;2023-03-16T02:28:21;98916.81;;;9.14;100.00
10668;BME280;5382;42.136;24.796;2023-03-16T02:30:52;98921.09;;;9.15;100.00
10668;BME280;5382;42.136;24.796;2023-03-16T02:33:20;98921.69;;;9.18;100.00
10668;BME280;5382;42.136;24.796;2023-03-16T02:35:46;98921.47;;;9.22;100.00
10668;BME280;5382;42.136;24.796;2023-03-16T02:38:13;98928.50;;;9.21;100.00
10668;BME280;5382;42.136;24.796;2023-03-16T02:40:40;98932.25;;;9.18;100.00
10668;BME280;5382;42.136;24.796;2023-03-16T02:43:11;98937.28;;;9.22;100.00
10668;BME280;5382;42.136;24.796;2023-03-16T02:45:42;98930.22;;;9.22;100.00
10668;BME280;5382;42.136;24.796;2023-03-16T02:48:15;98912.72;;;9.10;100.00
10668;BME280;5382;42.136;24.796;2023-03-16T02:50:44;98926.75;;;9.22;100.00
10668;BME280;5382;42.136;24.796;2023-03-16T02:53:12;98941.25;;;9.16;100.00
10668;BME280;5382;42.136;24.796;2023-03-16T02:55:39;98936.47;;;9.10;100.00
10668;BME280;5382;42.136;24.796;2023-03-16T02:58:06;98936.13;;;9.14;100.00
10668;BME280;5382;42.136;24.796;2023-03-16T03:00:33;98943.47;;;9.00;100.00
10668;BME280;5382;42.136;24.796;2023-03-16T03:03:00;98955.69;;;9.01;100.00
10668;BME280;5382;42.136;24.796;2023-03-16T03:05:28;98938.91;;;9.02;100.00
10668;BME280;5382;42.136;24.796;2023-03-16T03:07:55;98963.59;;;9.01;100.00
10668;BME280;5382;42.136;24.796;2023-03-16T03:10:22;98976.81;;;8.89;100.00
10668;BME280;5382;42.136;24.796;2023-03-16T03:12:49;98970.47;;;8.92;100.00
10668;BME280;5382;42.136;24.796;2023-03-16T03:15:16;98976.47;;;8.71;100.00
10668;BME280;5382;42.136;24.796;2023-03-16T03:17:43;98987.38;;;8.67;100.00
10668;BME280;5382;42.136;24.796;2023-03-16T03:20:11;98942.81;;;8.41;100.00
10668;BME280;5382;42.136;24.796;2023-03-16T03:22:43;98973.63;;;8.52;100.00
10668;BME280;5382;42.136;24.796;2023-03-16T03:25:11;98974.56;;;8.51;100.00
10668;BME280;5382;42.136;24.796;2023-03-16T03:27:38;98979.97;;;8.49;100.00
10668;BME280;5382;42.136;24.796;2023-03-16T03:30:06;98968.22;;;8.42;100.00
10668;BME280;5382;42.136;24.796;2023-03-16T03:32:33;98994.72;;;8.52;100.00
10668;BME280;5382;42.136;24.796;2023-03-16T03:35:00;98986.91;;;8.50;100.00
10668;BME280;5382;42.136;24.796;2023-03-16T03:37:26;99003.22;;;8.44;100.00
10668;BME280;5382;42.136;24.796;2023-03-16T03:39:55;99021.50;;;8.35;100.00
10668;BME280;5382;42.136;24.796;2023-03-16T03:42:21;98997.47;;;8.39;100.00
10668;BME280;5382;42.136;24.796;2023-03-16T03:44:48;99019.47;;;8.38;100.00
10668;BME280;5382;42.136;24.796;2023-03-16T03:47:16;98989.50;;;8.17;100.00
10668;BME280;5382;42.136;24.796;2023-03-16T03:49:43;99003.88;;;8.24;100.00
10668;BME280;5382;42.136;24.796;2023-03-16T03:52:10;98997.97;;;8.09;100.00
10668;BME280;5382;42.136;24.796;2023-03-16T03:54:37;99017.41;;;8.30;100.00
10668;BME280;5382;42.136;24.796;2023-03-16T03:57:05;99027.72;;;8.34;100.00
10668;BME280;5382;42.136;24.796;2023-03-16T03:59:32;99004.84;;;8.34;100.00
10668;BME280;5382;42.136;24.796;2023-03-16T04:02:05;99013.69;;;8.33;100.00
10668;BME280;5382;42.136;24.796;2023-03-16T04:04:31;99010.00;;;8.36;100.00
10668;BME280;5382;42.136;24.796;2023-03-16T04:06:58;99002.44;;;8.31;100.00
10668;BME280;5382;42.136;24.796;2023-03-16T04:09:25;99040.19;;;8.32;100.00
10668;BME280;5382;42.136;24.796;2023-03-16T04:11:52;99021.03;;;8.29;100.00
10668;BME280;5382;42.136;24.796;2023-03-16T04:14:23;99034.63;;;8.12;100.00
10668;BME280;5382;42.136;24.796;2023-03-16T04:16:50;99036.78;;;8.07;100.00
10668;BME280;5382;42.136;24.796;2023-03-16T04:19:16;99025.00;;;7.89;100.00
10668;BME280;5382;42.136;24.796;2023-03-16T04:21:43;99042.94;;;7.95;100.00
10668;BME280;5382;42.136;24.796;2023-03-16T04:24:10;99090.00;;;7.88;100.00
10668;BME280;5382;42.136;24.796;2023-03-16T04:26:39;99054.19;;;7.85;100.00
10668;BME280;5382;42.136;24.796;2023-03-16T04:29:06;99056.81;;;7.85;100.00
10668;BME280;5382;42.136;24.796;2023-03-16T04:31:34;99066.53;;;7.85;100.00
10668;BME280;5382;42.136;24.796;2023-03-16T04:34:01;99060.03;;;7.78;100.00
10668;BME280;5382;42.136;24.796;2023-03-16T04:36:28;99073.06;;;7.79;100.00
10668;BME280;5382;42.136;24.796;2023-03-16T04:38:54;99101.41;;;7.76;100.00
10668;BME280;5382;42.136;24.796;2023-03-16T04:41:21;99080.47;;;7.74;100.00
10668;BME280;5382;42.136;24.796;2023-03-16T04:43:48;99085.84;;;7.73;100.00
10668;BME280;5382;42.136;24.796;2023-03-16T04:46:15;99080.59;;;7.73;100.00
10668;BME280;5382;42.136;24.796;2023-03-16T04:48:43;99092.56;;;7.77;100.00
10668;BME280;5382;42.136;24.796;2023-03-16T04:51:10;99098.94;;;7.61;100.00
10668;BME280;5382;42.136;24.796;2023-03-16T04:53:37;99087.97;;;7.68;100.00
10668;BME280;5382;42.136;24.796;2023-03-16T04:56:04;99091.03;;;7.61;100.00
10668;BME280;5382;42.136;24.796;2023-03-16T04:58:31;99117.19;;;7.64;100.00
10668;BME280;5382;42.136;24.796;2023-03-16T05:00:58;99096.75;;;7.55;100.00
10668;BME280;5382;42.136;24.796;2023-03-16T05:03:26;99116.22;;;7.65;100.00
10668;BME280;5382;42.136;24.796;2023-03-16T05:05:55;99114.53;;;7.64;100.00
10668;BME280;5382;42.136;24.796;2023-03-16T05:08:21;99131.28;;;7.63;100.00
10668;BME280;5382;42.136;24.796;2023-03-16T05:10:48;99144.22;;;7.67;100.00
10668;BME280;5382;42.136;24.796;2023-03-16T05:13:15;99129.19;;;7.56;100.00
10668;BME280;5382;42.136;24.796;2023-03-16T05:15:42;99144.44;;;7.63;100.00
10668;BME280;5382;42.136;24.796;2023-03-16T05:18:08;99151.41;;;7.64;100.00
10668;BME280;5382;42.136;24.796;2023-03-16T05:20:36;99144.66;;;7.60;100.00
10668;BME280;5382;42.136;24.796;2023-03-16T05:23:04;99143.50;;;7.64;100.00
10668;BME280;5382;42.136;24.796;2023-03-16T05:25:32;99147.91;;;7.64;100.00
10668;BME280;5382;42.136;24.796;2023-03-16T05:27:59;99121.78;;;7.61;100.00
10668;BME280;5382;42.136;24.796;2023-03-16T05:30:26;99146.97;;;7.65;100.00
10668;BME280;5382;42.136;24.796;2023-03-16T05:32:53;99165.50;;;7.63;100.00
10668;BME280;5382;42.136;24.796;2023-03-16T05:35:22;99156.84;;;7.61;100.00
10668;BME280;5382;42.136;24.796;2023-03-16T05:37:49;99157.81;;;7.60;100.00
10668;BME280;5382;42.136;24.796;2023-03-16T05:40:17;99161.19;;;7.62;100.00
10668;BME280;5382;42.136;24.796;2023-03-16T05:42:48;99153.28;;;7.62;100.00
10668;BME280;5382;42.136;24.796;2023-03-16T05:45:19;99179.94;;;7.58;100.00
10668;BME280;5382;42.136;24.796;2023-03-16T05:47:46;99160.72;;;7.45;100.00
10668;BME280;5382;42.136;24.796;2023-03-16T05:50:14;99160.91;;;7.54;100.00
10668;BME280;5382;42.136;24.796;2023-03-16T05:52:42;99185.22;;;7.58;100.00
10668;BME280;5382;42.136;24.796;2023-03-16T05:55:10;99174.06;;;7.54;100.00
10668;BME280;5382;42.136;24.796;2023-03-16T05:57:39;99169.22;;;7.48;100.00
10668;BME280;5382;42.136;24.796;2023-03-16T06:00:09;99226.94;;;7.51;100.00
10668;BME280;5382;42.136;24.796;2023-03-16T06:02:40;99186.41;;;7.54;100.00
10668;BME280;5382;42.136;24.796;2023-03-16T06:05:08;99199.56;;;7.54;100.00
10668;BME280;5382;42.136;24.796;2023-03-16T06:07:35;99173.09;;;7.55;100.00
10668;BME280;5382;42.136;24.796;2023-03-16T06:10:02;99172.88;;;7.58;100.00
10668;BME280;5382;42.136;24.796;2023-03-16T06:12:30;99172.66;;;7.61;100.00
10668;BME280;5382;42.136;24.796;2023-03-16T06:15:00;99233.94;;;7.63;100.00
10668;BME280;5382;42.136;24.796;2023-03-16T06:17:27;99214.78;;;7.61;100.00
10668;BME280;5382;42.136;24.796;2023-03-16T06:19:54;99214.38;;;7.68;100.00
10668;BME280;5382;42.136;24.796;2023-03-16T06:22:21;99195.09;;;7.67;100.00
10668;BME280;5382;42.136;24.796;2023-03-16T06:24:49;99211.50;;;7.71;100.00
10668;BME280;5382;42.136;24.796;2023-03-16T06:27:16;99197.91;;;7.77;100.00
10668;BME280;5382;42.136;24.796;2023-03-16T06:29:44;99204.13;;;7.76;100.00
10668;BME280;5382;42.136;24.796;2023-03-16T06:32:13;99218.78;;;7.80;100.00
10668;BME280;5382;42.136;24.796;2023-03-16T06:34:40;99201.06;;;7.69;100.00
10668;BME280;5382;42.136;24.796;2023-03-16T06:37:07;99228.13;;;7.84;100.00
10668;BME280;5382;42.136;24.796;2023-03-16T06:39:34;99238.31;;;7.89;100.00
10668;BME280;5382;42.136;24.796;2023-03-16T06:42:01;99203.91;;;7.79;100.00
10668;BME280;5382;42.136;24.796;2023-03-16T06:44:29;99226.47;;;7.70;100.00
10668;BME280;5382;42.136;24.796;2023-03-16T06:46:55;99240.03;;;7.77;100.00
10668;BME280;5382;42.136;24.796;2023-03-16T06:49:24;99235.72;;;7.76;100.00
10668;BME280;5382;42.136;24.796;2023-03-16T06:51:50;99241.72;;;7.78;100.00
10668;BME280;5382;42.136;24.796;2023-03-16T06:54:17;99244.88;;;7.83;100.00
10668;BME280;5382;42.136;24.796;2023-03-16T06:56:44;99268.44;;;7.84;100.00
10668;BME280;5382;42.136;24.796;2023-03-16T06:59:11;99283.41;;;7.84;100.00
10668;BME280;5382;42.136;24.796;2023-03-16T07:01:37;99273.09;;;7.81;100.00
10668;BME280;5382;42.136;24.796;2023-03-16T07:04:04;99236.16;;;7.70;100.00
10668;BME280;5382;42.136;24.796;2023-03-16T07:06:32;99279.13;;;7.83;100.00
10668;BME280;5382;42.136;24.796;2023-03-16T07:08:59;99280.78;;;7.84;100.00
10668;BME280;5382;42.136;24.796;2023-03-16T07:11:28;99264.16;;;7.83;100.00
10668;BME280;5382;42.136;24.796;2023-03-16T07:13:54;99278.06;;;7.85;100.00
10668;BME280;5382;42.136;24.796;2023-03-16T07:16:23;99281.53;;;7.86;100.00
10668;BME280;5382;42.136;24.796;2023-03-16T07:18:49;99244.25;;;7.67;100.00
10668;BME280;5382;42.136;24.796;2023-03-16T07:21:17;99290.16;;;7.88;100.00
10668;BME280;5382;42.136;24.796;2023-03-16T07:23:45;99308.31;;;7.80;100.00
10668;BME280;5382;42.136;24.796;2023-03-16T07:26:12;99272.69;;;7.74;100.00
10668;BME280;5382;42.136;24.796;2023-03-16T07:28:39;99295.81;;;7.95;100.00
10668;BME280;5382;42.136;24.796;2023-03-16T07:31:06;99258.06;;;7.70;100.00
10668;BME280;5382;42.136;24.796;2023-03-16T07:33:34;99305.53;;;7.94;100.00
10668;BME280;5382;42.136;24.796;2023-03-16T07:36:01;99310.06;;;7.92;100.00
10668;BME280;5382;42.136;24.796;2023-03-16T07:38:30;99309.34;;;7.90;100.00
10668;BME280;5382;42.136;24.796;2023-03-16T07:40:58;99302.06;;;7.81;100.00
10668;BME280;5382;42.136;24.796;2023-03-16T07:43:25;99311.25;;;7.88;100.00
10668;BME280;5382;42.136;24.796;2023-03-16T07:45:52;99306.91;;;7.87;100.00
10668;BME280;5382;42.136;24.796;2023-03-16T07:48:19;99299.53;;;7.79;100.00
10668;BME280;5382;42.136;24.796;2023-03-16T07:50:47;99321.13;;;7.84;100.00
10668;BME280;5382;42.136;24.796;2023-03-16T07:53:14;99310.56;;;7.97;100.00
10668;BME280;5382;42.136;24.796;2023-03-16T07:55:41;99300.25;;;7.94;100.00
10668;BME280;5382;42.136;24.796;2023-03-16T07:58:10;99301.22;;;7.93;100.00
10668;BME280;5382;42.136;24.796;2023-03-16T08:00:37;99300.91;;;7.98;100.00
10668;BME280;5382;42.136;24.796;2023-03-16T08:03:07;99299.41;;;8.06;100.00
10668;BME280;5382;42.136;24.796;2023-03-16T08:05:34;99300.31;;;8.18;100.00
10668;BME280;5382;42.136;24.796;2023-03-16T08:08:01;99297.25;;;8.24;100.00
10668;BME280;5382;42.136;24.796;2023-03-16T08:10:28;99328.09;;;8.35;100.00
10668;BME280;5382;42.136;24.796;2023-03-16T08:12:55;99314.28;;;8.44;100.00
10668;BME280;5382;42.136;24.796;2023-03-16T08:15:23;99303.34;;;8.62;100.00
10668;BME280;5382;42.136;24.796;2023-03-16T08:17:50;99317.75;;;8.69;100.00
10668;BME280;5382;42.136;24.796;2023-03-16T08:20:18;99334.00;;;8.76;100.00
10668;BME280;5382;42.136;24.796;2023-03-16T08:22:45;99346.94;;;8.79;100.00
10668;BME280;5382;42.136;24.796;2023-03-16T08:25:14;99320.00;;;8.86;100.00
10668;BME280;5382;42.136;24.796;2023-03-16T08:27:41;99346.31;;;8.75;100.00
10668;BME280;5382;42.136;24.796;2023-03-16T08:30:09;99339.06;;;8.90;100.00
10668;BME280;5382;42.136;24.796;2023-03-16T08:32:38;99351.34;;;8.91;100.00
10668;BME280;5382;42.136;24.796;2023-03-16T08:35:06;99356.47;;;8.92;100.00
10668;BME280;5382;42.136;24.796;2023-03-16T08:37:34;99358.38;;;8.90;100.00
10668;BME280;5382;42.136;24.796;2023-03-16T08:40:00;99334.44;;;8.93;100.00
10668;BME280;5382;42.136;24.796;2023-03-16T08:42:29;99338.72;;;8.83;100.00
10668;BME280;5382;42.136;24.796;2023-03-16T08:44:56;99348.56;;;8.68;100.00
10668;BME280;5382;42.136;24.796;2023-03-16T08:47:25;99337.50;;;8.87;100.00
10668;BME280;5382;42.136;24.796;2023-03-16T08:49:53;99360.69;;;8.95;100.00
10668;BME280;5382;42.136;24.796;2023-03-16T08:52:20;99339.25;;;9.00;100.00
10668;BME280;5382;42.136;24.796;2023-03-16T08:54:48;99355.13;;;9.11;100.00
10668;BME280;5382;42.136;24.796;2023-03-16T08:57:14;99311.88;;;9.01;100.00
10668;BME280;5382;42.136;24.796;2023-03-16T08:59:41;99358.66;;;9.23;100.00
10668;BME280;5382;42.136;24.796;2023-03-16T09:02:11;99375.94;;;9.27;97.89
10668;BME280;5382;42.136;24.796;2023-03-16T09:04:38;99360.22;;;9.25;96.02
10668;BME280;5382;42.136;24.796;2023-03-16T09:07:06;99358.91;;;9.31;100.00
10668;BME280;5382;42.136;24.796;2023-03-16T09:09:34;99364.22;;;9.42;99.83
10668;BME280;5382;42.136;24.796;2023-03-16T09:12:01;99334.97;;;9.56;96.18
10668;BME280;5382;42.136;24.796;2023-03-16T09:14:28;99341.25;;;9.89;95.02
10668;BME280;5382;42.136;24.796;2023-03-16T09:16:55;99373.53;;;9.93;90.80
10668;BME280;5382;42.136;24.796;2023-03-16T09:19:22;99358.19;;;9.87;91.41
10668;BME280;5382;42.136;24.796;2023-03-16T09:21:49;99347.38;;;9.90;89.58
10668;BME280;5382;42.136;24.796;2023-03-16T09:24:17;99389.06;;;9.86;89.60
10668;BME280;5382;42.136;24.796;2023-03-16T09:26:44;99367.44;;;9.92;92.54
10668;BME280;5382;42.136;24.796;2023-03-16T09:29:11;99362.00;;;9.82;90.25
10668;BME280;5382;42.136;24.796;2023-03-16T09:31:37;99360.09;;;9.85;92.27
10668;BME280;5382;42.136;24.796;2023-03-16T09:34:04;99403.94;;;9.87;91.47
10668;BME280;5382;42.136;24.796;2023-03-16T09:36:31;99344.38;;;9.94;90.52
10668;BME280;5382;42.136;24.796;2023-03-16T09:38:58;99337.88;;;9.98;92.05
10668;BME280;5382;42.136;24.796;2023-03-16T09:41:41;99350.97;;;10.11;89.38
10668;BME280;5382;42.136;24.796;2023-03-16T09:44:22;99356.00;;;10.14;87.95
10668;BME280;5382;42.136;24.796;2023-03-16T09:46:55;99347.97;;;10.16;87.88
10668;BME280;5382;42.136;24.796;2023-03-16T09:49:27;99364.06;;;10.13;86.14
10668;BME280;5382;42.136;24.796;2023-03-16T09:52:05;99357.44;;;10.18;85.30
10668;BME280;5382;42.136;24.796;2023-03-16T09:54:44;99360.94;;;10.08;86.52
10668;BME280;5382;42.136;24.796;2023-03-16T09:57:23;99348.44;;;10.21;86.36
10668;BME280;5382;42.136;24.796;2023-03-16T09:59:52;99338.22;;;10.39;83.32
10668;BME280;5382;42.136;24.796;2023-03-16T10:02:44;99362.63;;;10.54;82.82
10668;BME280;5382;42.136;24.796;2023-03-16T10:05:14;99361.06;;;10.51;81.54
10668;BME280;5382;42.136;24.796;2023-03-16T10:07:47;99352.88;;;10.54;81.61
10668;BME280;5382;42.136;24.796;2023-03-16T10:10:26;99355.75;;;10.62;79.64
10668;BME280;5382;42.136;24.796;2023-03-16T10:12:59;99382.16;;;10.85;77.93
10668;BME280;5382;42.136;24.796;2023-03-16T10:15:28;99361.59;;;10.66;77.49
10668;BME280;5382;42.136;24.796;2023-03-16T10:18:00;99356.16;;;10.79;76.92
10668;BME280;5382;42.136;24.796;2023-03-16T10:20:32;99342.66;;;10.93;76.62
10668;BME280;5382;42.136;24.796;2023-03-16T10:23:07;99332.53;;;10.98;76.13
10668;BME280;5382;42.136;24.796;2023-03-16T10:25:42;99360.56;;;11.01;76.00
10668;BME280;5382;42.136;24.796;2023-03-16T10:28:13;99353.91;;;11.06;75.93
10668;BME280;5382;42.136;24.796;2023-03-16T10:30:40;99352.63;;;11.22;73.66
10668;BME280;5382;42.136;24.796;2023-03-16T10:33:16;99368.47;;;11.33;73.02
10668;BME280;5382;42.136;24.796;2023-03-16T10:35:46;99330.28;;;11.35;71.77
10668;BME280;5382;42.136;24.796;2023-03-16T10:38:28;99348.91;;;11.45;71.40
10668;BME280;5382;42.136;24.796;2023-03-16T10:40:58;99356.25;;;11.63;69.60
10668;BME280;5382;42.136;24.796;2023-03-16T10:43:27;99347.13;;;11.76;69.21
10668;BME280;5382;42.136;24.796;2023-03-16T10:46:00;99371.50;;;11.91;67.83
10668;BME280;5382;42.136;24.796;2023-03-16T10:48:30;99355.88;;;11.88;68.22
10668;BME280;5382;42.136;24.796;2023-03-16T10:50:58;99356.59;;;12.21;66.77
10668;BME280;5382;42.136;24.796;2023-03-16T10:53:29;99369.09;;;12.09;65.28
10668;BME280;5382;42.136;24.796;2023-03-16T10:55:58;99405.78;;;11.83;66.58
10668;BME280;5382;42.136;24.796;2023-03-16T10:58:31;99366.66;;;11.96;66.60
10668;BME280;5382;42.136;24.796;2023-03-16T11:00:58;99356.81;;;12.18;65.69
10668;BME280;5382;42.136;24.796;2023-03-16T11:03:27;99356.59;;;12.31;64.20
10668;BME280;5382;42.136;24.796;2023-03-16T11:05:57;99358.44;;;12.40;64.01
10668;BME280;5382;42.136;24.796;2023-03-16T11:08:27;99353.84;;;12.42;63.77
10668;BME280;5382;42.136;24.796;2023-03-16T11:10:58;99333.78;;;12.59;63.04
10668;BME280;5382;42.136;24.796;2023-03-16T11:13:33;99335.78;;;12.86;62.60
10668;BME280;5382;42.136;24.796;2023-03-16T11:16:03;99365.66;;;12.88;61.18
10668;BME280;5382;42.136;24.796;2023-03-16T11:18:35;99374.28;;;12.20;63.43
10668;BME280;5382;42.136;24.796;2023-03-16T11:21:07;99366.56;;;12.08;64.76
10668;BME280;5382;42.136;24.796;2023-03-16T11:23:42;99344.41;;;12.09;65.34
10668;BME280;5382;42.136;24.796;2023-03-16T11:26:16;99341.75;;;12.09;65.53
10668;BME280;5382;42.136;24.796;2023-03-16T11:28:51;99335.50;;;12.19;65.56
10668;BME280;5382;42.136;24.796;2023-03-16T11:31:24;99329.00;;;12.03;66.02
10668;BME280;5382;42.136;24.796;2023-03-16T11:33:54;99342.75;;;11.87;66.42
10668;BME280;5382;42.136;24.796;2023-03-16T11:36:37;99365.81;;;11.75;67.28
10668;BME280;5382;42.136;24.796;2023-03-16T11:39:14;99318.00;;;11.55;68.38
10668;BME280;5382;42.136;24.796;2023-03-16T11:41:53;99346.25;;;11.45;69.59
10668;BME280;5382;42.136;24.796;2023-03-16T11:44:32;99334.94;;;11.43;69.90
10668;BME280;5382;42.136;24.796;2023-03-16T11:47:06;99339.19;;;11.55;69.75
10668;BME280;5382;42.136;24.796;2023-03-16T11:49:56;99328.75;;;11.54;69.11
10668;BME280;5382;42.136;24.796;2023-03-16T11:52:36;99352.00;;;11.50;69.42
10668;BME280;5382;42.136;24.796;2023-03-16T11:55:18;99364.69;;;11.47;69.98
10668;BME280;5382;42.136;24.796;2023-03-16T11:57:58;99355.09;;;11.55;69.06
10668;BME280;5382;42.136;24.796;2023-03-16T12:00:41;99340.63;;;11.60;69.28
10668;BME280;5382;42.136;24.796;2023-03-16T12:06:18;99354.66;;;11.50;68.77
10668;BME280;5382;42.136;24.796;2023-03-16T12:09:14;99340.38;;;11.42;68.85
10668;BME280;5382;42.136;24.796;2023-03-16T12:11:47;99364.84;;;11.34;69.57
10668;BME280;5382;42.136;24.796;2023-03-16T12:14:21;99377.13;;;11.35;69.22
10668;BME280;5382;42.136;24.796;2023-03-16T12:16:54;99374.09;;;11.19;68.99
10668;BME280;5382;42.136;24.796;2023-03-16T12:19:29;99369.94;;;11.05;70.24
10668;BME280;5382;42.136;24.796;2023-03-16T12:22:04;99348.44;;;11.19;70.61
10668;BME280;5382;42.136;24.796;2023-03-16T12:24:38;99352.69;;;11.10;70.35
10668;BME280;5382;42.136;24.796;2023-03-16T12:27:11;99317.41;;;11.10;70.03
10668;BME280;5382;42.136;24.796;2023-03-16T12:29:46;99382.59;;;11.22;70.13
10668;BME280;5382;42.136;24.796;2023-03-16T12:32:33;99382.75;;;11.21;70.22
10668;BME280;5382;42.136;24.796;2023-03-16T12:35:15;99377.44;;;11.21;70.50
10668;BME280;5382;42.136;24.796;2023-03-16T12:37:50;99381.41;;;11.15;70.21
10668;BME280;5382;42.136;24.796;2023-03-16T12:40:30;99391.47;;;11.00;70.85
10668;BME280;5382;42.136;24.796;2023-03-16T12:43:10;99377.00;;;11.04;71.36
10668;BME280;5382;42.136;24.796;2023-03-16T12:45:47;99369.13;;;10.93;71.60
10668;BME280;5382;42.136;24.796;2023-03-16T12:48:23;99376.72;;;10.86;72.73
10668;BME280;5382;42.136;24.796;2023-03-16T12:50:53;99385.00;;;10.93;73.02
10668;BME280;5382;42.136;24.796;2023-03-16T12:53:27;99385.53;;;10.87;73.64
10668;BME280;5382;42.136;24.796;2023-03-16T12:55:55;99380.69;;;10.92;74.50
10668;BME280;5382;42.136;24.796;2023-03-16T12:58:23;99403.16;;;10.98;73.17
10668;BME280;5382;42.136;24.796;2023-03-16T13:00:56;99390.09;;;10.85;73.56
10668;BME280;5382;42.136;24.796;2023-03-16T13:03:25;99412.13;;;10.74;74.59
10668;BME280;5382;42.136;24.796;2023-03-16T13:05:55;99419.94;;;10.64;74.93
10668;BME280;5382;42.136;24.796;2023-03-16T13:08:24;99388.97;;;10.33;75.89
10668;BME280;5382;42.136;24.796;2023-03-16T13:11:00;99402.31;;;10.54;76.06
10668;BME280;5382;42.136;24.796;2023-03-16T13:13:26;99412.00;;;10.53;76.10
10668;BME280;5382;42.136;24.796;2023-03-16T13:16:04;99410.22;;;10.54;76.63